Time;durP1;ratioP1;P1;durP2;ratioP2;P2;SDS_P1;SDS_P2;PMS_P1;PMS_P2;Temp;Humidity;BMP_temperature;BMP_pressure;BME280_temperature;BME280_humidity;BME280_pressure;Samples;Min_cycle;Max_cycle;Signal;HPM_P1;HPM_P2
2022/05/23 00:00:58;;;;;;;3.27;2.93;;;16.50;99.90;17.50;96532.00;;;;5007562;28;20303;-65
2022/05/23 00:03:46;;;;;;;2.80;2.60;;;16.40;99.90;17.30;96531.00;;;;5013922;28;20230;-65
2022/05/23 00:06:36;;;;;;;4.57;2.73;;;16.40;99.90;17.60;96531.00;;;;5017719;28;20210;-66
2022/05/23 00:09:25;;;;;;;3.00;2.77;;;16.50;99.90;17.60;96535.00;;;;5029239;28;20201;-65
2022/05/23 00:12:14;;;;;;;4.37;3.20;;;16.20;99.90;17.40;96524.00;;;;5029770;28;20225;-65
2022/05/23 00:15:06;;;;;;;3.63;2.57;;;16.60;99.90;17.60;96526.00;;;;5017884;28;20214;-66
2022/05/23 00:17:55;;;;;;;2.90;2.60;;;16.50;99.90;17.40;96523.00;;;;5025482;28;20923;-66
2022/05/23 00:20:44;;;;;;;3.37;3.07;;;16.20;99.90;17.40;96524.00;;;;5013279;28;20201;-66
2022/05/23 00:23:33;;;;;;;6.93;2.73;;;16.20;99.90;17.60;96515.00;;;;5015173;28;20241;-65
2022/05/23 00:26:23;;;;;;;5.30;2.77;;;16.30;99.90;17.60;96510.00;;;;5012269;28;20206;-65
2022/05/23 00:29:12;;;;;;;3.30;2.93;;;16.30;99.90;17.70;96498.00;;;;5018030;28;20209;-64
2022/05/23 00:35:18;;;;;;;2.60;2.40;;;16.40;99.90;17.70;96489.00;;;;5015107;28;20676;-66
2022/05/23 00:38:09;;;;;;;3.43;2.93;;;16.50;99.90;17.70;96480.00;;;;5014703;28;20223;-66
2022/05/23 00:44:18;;;;;;;3.13;2.83;;;16.40;99.90;17.20;96487.00;;;;5017056;28;20238;-65
2022/05/23 00:47:21;;;;;;;3.53;2.90;;;16.30;99.90;17.10;96476.00;;;;5016177;28;20720;-65
2022/05/23 00:50:11;;;;;;;4.00;2.73;;;16.20;99.90;17.10;96489.00;;;;5011632;28;20214;-65
2022/05/23 00:53:01;;;;;;;2.73;2.53;;;16.30;99.90;16.90;96484.00;;;;5028060;28;20232;-65
2022/05/23 00:55:50;;;;;;;2.47;2.27;;;;;17.30;96485.00;;;;5031099;28;20572;-65
2022/05/23 00:58:44;;;;;;;3.57;2.47;;;16.20;99.90;17.40;96490.00;;;;5031237;28;20209;-66
2022/05/23 01:01:36;;;;;;;4.23;2.53;;;16.10;99.90;17.60;96483.00;;;;5021260;28;20193;-66
2022/05/23 01:04:28;;;;;;;3.07;2.77;;;16.30;99.90;17.40;96475.00;;;;5019947;28;20217;-65
2022/05/23 01:07:17;;;;;;;3.17;2.43;;;16.30;99.90;17.10;96473.00;;;;5015616;28;20211;-65
2022/05/23 01:10:09;;;;;;;4.17;2.83;;;16.20;99.90;17.10;96485.00;;;;5021993;28;20217;-66
2022/05/23 01:12:58;;;;;;;2.77;2.33;;;16.20;99.90;17.40;96474.00;;;;5008224;28;20230;-65
2022/05/23 01:15:50;;;;;;;3.23;2.93;;;16.00;99.90;17.40;96465.00;;;;5017986;28;20201;-66
2022/05/23 01:18:39;;;;;;;6.30;3.70;;;16.10;99.90;17.50;96468.00;;;;5016704;28;20206;-66
2022/05/23 01:21:43;;;;;;;2.67;2.47;;;16.10;99.90;17.50;96470.00;;;;5015597;28;20209;-66
2022/05/23 01:24:39;;;;;;;3.67;2.60;;;16.40;99.90;17.40;96469.00;;;;5020222;28;20646;-64
2022/05/23 01:27:31;;;;;;;4.60;2.90;;;16.20;99.90;17.10;96488.00;;;;5024494;28;20204;-65
2022/05/23 01:30:21;;;;;;;5.27;3.00;;;16.40;99.90;16.90;96467.00;;;;5026825;28;20208;-65
2022/05/23 01:33:12;;;;;;;2.73;2.47;;;15.90;99.90;17.10;96475.00;;;;5020839;28;20236;-67
2022/05/23 01:36:01;;;;;;;8.70;3.00;;;16.30;99.90;17.10;96474.00;;;;5028598;28;20843;-66
2022/05/23 01:38:50;;;;;;;3.43;2.47;;;16.10;99.90;17.40;96455.00;;;;5029792;28;20209;-66
2022/05/23 01:41:38;;;;;;;4.13;3.73;;;16.10;99.90;17.40;96453.00;;;;5016205;28;20554;-65
2022/05/23 01:44:29;;;;;;;2.70;2.40;;;16.20;99.90;17.40;96446.00;;;;5009665;28;20764;-64
2022/05/23 01:47:21;;;;;;;3.30;2.80;;;16.10;99.90;17.40;96455.00;;;;5014638;28;20206;-66
2022/05/23 01:50:10;;;;;;;4.87;2.80;;;16.10;99.90;17.40;96455.00;;;;5013541;28;20213;-65
2022/05/23 01:52:59;;;;;;;3.83;2.83;;;16.10;99.90;17.50;96442.00;;;;5026418;28;20232;-65
2022/05/23 01:55:48;;;;;;;3.33;2.50;;;16.20;99.90;17.50;96442.00;;;;5029752;28;20194;-65
2022/05/23 02:01:44;;;;;;;3.70;2.63;;;16.00;99.90;17.60;96414.00;;;;5018068;28;20193;-65
2022/05/23 02:04:33;;;;;;;3.70;2.70;;;16.30;99.90;17.60;96416.00;;;;5019697;28;20221;-66
2022/05/23 02:07:22;;;;;;;3.10;2.73;;;16.30;99.90;17.50;96411.00;;;;5015960;28;20204;-66
2022/05/23 02:10:13;;;;;;;5.17;2.30;;;16.10;99.90;17.60;96407.00;;;;5021770;28;20573;-66
2022/05/23 02:13:02;;;;;;;3.17;2.43;;;16.30;99.90;17.70;96404.00;;;;5017337;28;20242;-66
2022/05/23 02:15:51;;;;;;;2.60;2.40;;;16.30;99.90;17.60;96403.00;;;;5020056;28;20201;-66
2022/05/23 02:18:41;;;;;;;2.83;2.53;;;16.20;99.90;17.60;96398.00;;;;5004010;28;20244;-66
2022/05/23 02:21:31;;;;;;;4.53;3.07;;;16.20;99.90;17.30;96389.00;;;;5022878;28;20209;-65
2022/05/23 02:24:19;;;;;;;3.80;2.53;;;16.10;99.90;17.00;96395.00;;;;5018033;28;20734;-66
2022/05/23 02:27:08;;;;;;;3.53;3.20;;;16.20;99.90;16.70;96398.00;;;;5019970;28;20209;-66
2022/05/23 02:29:58;;;;;;;3.60;2.93;;;16.00;99.90;16.80;96394.00;;;;5016635;28;20217;-66
2022/05/23 02:32:46;;;;;;;3.53;3.03;;;15.80;99.90;16.40;96392.00;;;;5017195;28;20237;-66
2022/05/23 02:35:38;;;;;;;3.03;2.73;;;16.00;99.90;16.70;96396.00;;;;5028657;28;20201;-66
2022/05/23 02:38:26;;;;;;;4.13;3.07;;;15.90;99.90;16.80;96404.00;;;;5013384;28;20205;-66
2022/05/23 02:41:15;;;;;;;3.70;3.30;;;15.90;99.90;16.90;96402.00;;;;5022857;28;20209;-66
2022/05/23 02:44:05;;;;;;;3.53;3.23;;;15.60;99.90;16.70;96410.00;;;;5014366;28;20728;-66
2022/05/23 02:46:55;;;;;;;4.10;3.33;;;15.80;99.90;16.50;96403.00;;;;5020281;28;20264;-66
2022/05/23 02:49:44;;;;;;;6.13;3.27;;;15.20;99.90;16.60;96399.00;;;;5019131;28;20210;-66
2022/05/23 02:52:34;;;;;;;4.50;2.77;;;15.70;99.90;16.70;96408.00;;;;5019894;28;20225;-66
2022/05/23 02:55:23;;;;;;;3.97;3.67;;;15.40;99.90;17.00;96402.00;;;;5026842;28;20210;-66
2022/05/23 02:58:12;;;;;;;3.20;2.90;;;15.70;99.90;17.00;96407.00;;;;5028340;28;20205;-66
2022/05/23 03:01:01;;;;;;;2.83;2.63;;;15.60;99.90;17.20;96403.00;;;;5004161;28;20209;-66
2022/05/23 03:03:49;;;;;;;4.47;2.80;;;15.80;99.90;17.20;96403.00;;;;5012785;28;20248;-66
2022/05/23 03:06:37;;;;;;;3.97;2.70;;;15.80;99.90;17.20;96410.00;;;;5017468;28;20202;-66
2022/05/23 03:09:30;;;;;;;2.50;2.30;;;;;17.20;96415.00;;;;5021385;28;20197;-66
2022/05/23 03:12:18;;;;;;;4.00;2.77;;;15.80;99.90;17.20;96413.00;;;;5022112;28;20700;-66
2022/05/23 03:15:08;;;;;;;3.20;2.90;;;15.80;99.90;17.20;96401.00;;;;5019925;28;20208;-66
2022/05/23 03:17:57;;;;;;;3.60;3.07;;;15.90;99.90;17.20;96397.00;;;;5025897;28;20608;-66
2022/05/23 03:20:46;;;;;;;5.17;2.90;;;15.70;99.90;17.20;96402.00;;;;5021783;28;20208;-66
2022/05/23 03:27:01;;;;;;;6.00;2.90;;;15.80;99.90;17.40;96403.00;;;;5006297;28;20222;-65
2022/05/23 03:29:51;;;;;;;6.20;2.87;;;16.10;99.90;17.30;96400.00;;;;5010854;28;20210;-66
2022/05/23 03:32:40;;;;;;;3.23;2.83;;;15.90;99.90;17.10;96402.00;;;;5007578;28;20237;-65
2022/05/23 03:35:32;;;;;;;4.37;2.90;;;16.10;99.90;16.80;96405.00;;;;5014957;28;20213;-66
2022/05/23 03:38:22;;;;;;;7.97;3.17;;;15.80;99.90;16.70;96417.00;;;;5009172;28;20193;-66
2022/05/23 03:41:11;;;;;;;3.13;2.87;;;15.60;99.90;17.00;96409.00;;;;5027037;28;20239;-65
2022/05/23 03:44:01;;;;;;;5.67;2.33;;;15.70;99.90;17.10;96419.00;;;;5024961;28;20597;-66
2022/05/23 03:46:50;;;;;;;6.13;2.53;;;15.60;99.90;17.30;96408.00;;;;5016251;28;20559;-66
2022/05/23 03:49:39;;;;;;;4.33;3.00;;;15.60;99.90;17.30;96397.00;;;;5017544;28;20205;-67
2022/05/23 03:52:28;;;;;;;5.40;2.97;;;16.00;99.90;17.30;96406.00;;;;5013074;28;20202;-66
2022/05/23 03:55:17;;;;;;;7.63;3.20;;;15.80;99.90;17.10;96408.00;;;;5021904;28;20580;-66
2022/05/23 03:58:06;;;;;;;6.90;3.80;;;15.80;99.90;16.90;96412.00;;;;5010332;28;20213;-66
2022/05/23 04:01:07;;;;;;;3.97;2.53;;;15.90;99.90;16.80;96416.00;;;;5010544;28;20197;-66
2022/05/23 04:03:56;;;;;;;3.23;2.97;;;15.70;99.90;16.50;96421.00;;;;5022677;28;20234;-66
2022/05/23 04:06:45;;;;;;;4.80;3.07;;;15.60;99.90;16.50;96420.00;;;;5009390;28;20216;-66
2022/05/23 04:09:34;;;;;;;3.67;2.90;;;15.70;99.90;16.70;96439.00;;;;5009143;28;20210;-66
2022/05/23 04:12:23;;;;;;;3.27;2.70;;;15.70;99.90;16.90;96447.00;;;;5002279;28;20573;-66
2022/05/23 04:15:13;;;;;;;3.57;3.27;;;15.80;99.90;16.90;96448.00;;;;5008409;28;20221;-66
2022/05/23 04:18:03;;;;;;;3.57;2.57;;;15.50;99.90;17.00;96447.00;;;;5008170;28;20213;-66
2022/05/23 04:20:53;;;;;;;4.17;2.90;;;15.60;99.90;17.10;96458.00;;;;5002160;28;20197;-67
2022/05/23 04:23:42;;;;;;;4.53;2.90;;;15.90;99.90;17.20;96462.00;;;;5012008;28;20218;-66
2022/05/23 04:26:31;;;;;;;2.60;2.40;;;15.60;99.90;17.30;96456.00;;;;5006158;28;20437;-66
2022/05/23 04:29:20;;;;;;;3.40;2.80;;;15.70;99.90;17.10;96466.00;;;;5008345;28;20213;-66
2022/05/23 04:35:16;;;;;;;4.77;3.30;;;15.50;99.90;16.90;96457.00;;;;5005957;28;20666;-67
2022/05/23 04:38:05;;;;;;;5.67;3.87;;;15.70;99.90;16.80;96452.00;;;;5002478;28;20859;-66
2022/05/23 04:40:54;;;;;;;5.47;3.43;;;15.60;99.90;16.80;96450.00;;;;5007229;28;20569;-66
2022/05/23 04:43:43;;;;;;;6.77;4.10;;;15.80;99.90;16.80;96453.00;;;;5026612;23;20712;-82
2022/05/23 04:46:32;;;;;;;5.57;4.27;;;15.70;99.90;16.70;96439.00;;;;5026290;28;20826;-84
2022/05/23 04:52:29;;;;;;;6.67;3.77;;;15.30;99.90;16.00;96432.00;;;;5028887;28;20215;-83
2022/05/23 04:55:18;;;;;;;3.77;3.47;;;15.40;99.90;15.80;96427.00;;;;5031845;28;20205;-84
2022/05/23 04:58:07;;;;;;;4.83;3.83;;;15.10;99.90;15.80;96430.00;;;;5030539;28;20641;-84
2022/05/23 05:00:56;;;;;;;6.90;3.80;;;15.10;99.90;15.60;96419.00;;;;5027026;28;20204;-85
2022/05/23 05:03:45;;;;;;;4.47;4.07;;;15.20;99.90;15.50;96433.00;;;;5031031;28;20200;-84
2022/05/23 05:06:34;;;;;;;5.73;3.90;;;14.80;99.90;15.70;96418.00;;;;5032101;28;20209;-84
2022/05/23 05:09:24;;;;;;;5.43;3.83;;;14.70;99.90;15.70;96426.00;;;;5027140;28;20589;-85
2022/05/23 05:12:13;;;;;;;7.87;4.20;;;14.80;99.90;15.80;96426.00;;;;5032302;28;20212;-85
2022/05/23 05:15:02;;;;;;;4.30;3.90;;;14.80;99.90;15.70;96434.00;;;;5025921;28;20236;-84
2022/05/23 05:17:51;;;;;;;4.70;3.97;;;14.90;99.90;16.00;96423.00;;;;5033409;28;20691;-84
2022/05/23 05:20:40;;;;;;;6.43;4.03;;;14.70;99.90;16.20;96412.00;;;;5029936;28;20205;-85
2022/05/23 05:23:31;;;;;;;4.63;3.83;;;14.90;99.90;16.30;96410.00;;;;5027140;28;20205;-85
2022/05/23 05:26:22;;;;;;;9.07;3.83;;;15.20;99.90;16.10;96397.00;;;;5021519;28;20206;-85
2022/05/23 05:29:11;;;;;;;5.83;4.20;;;15.00;99.90;16.40;96409.00;;;;5026800;28;20259;-84
2022/05/23 05:32:05;;;;;;;5.10;3.77;;;15.00;99.90;16.80;96422.00;;;;5029601;28;20213;-83
2022/05/23 05:35:00;;;;;;;4.80;3.53;;;15.10;99.90;16.80;96426.00;;;;5026646;28;20228;-83
2022/05/23 05:37:54;;;;;;;10.57;4.10;;;15.40;99.90;16.50;96415.00;;;;5031881;28;20193;-86
2022/05/23 05:40:46;;;;;;;6.10;4.20;;;15.40;99.90;16.50;96425.00;;;;5026248;28;20197;-85
2022/05/23 05:43:43;;;;;;;7.07;4.27;;;15.40;99.90;16.90;96434.00;;;;5033015;28;20205;-85
2022/05/23 05:46:37;;;;;;;6.57;4.67;;;15.60;99.90;16.60;96428.00;;;;5024836;28;20211;-85
2022/05/23 05:49:30;;;;;;;9.93;4.00;;;15.60;99.90;16.90;96432.00;;;;5027828;28;20221;-85
2022/05/23 05:52:23;;;;;;;5.37;4.10;;;15.60;99.90;17.30;96424.00;;;;5029665;28;20587;-84
2022/05/23 05:55:13;;;;;;;11.80;5.57;;;15.60;99.90;17.60;96422.00;;;;5036938;28;20239;-84
2022/05/23 05:58:02;;;;;;;5.83;5.23;;;15.70;99.90;17.80;96420.00;;;;5032249;28;20241;-85
2022/05/23 06:00:52;;;;;;;6.20;4.17;;;16.10;99.90;17.80;96418.00;;;;5035186;28;20201;-86
2022/05/23 06:03:41;;;;;;;4.67;3.50;;;16.00;99.90;17.90;96416.00;;;;5034159;28;20199;-85
2022/05/23 06:12:42;;;;;;;9.37;3.60;;;16.40;99.90;18.50;96441.00;;;;5029970;28;20197;-86
2022/05/23 06:15:31;;;;;;;3.93;3.13;;;16.60;99.90;18.50;96429.00;;;;5030226;28;20221;-86
2022/05/23 06:18:21;;;;;;;6.13;3.83;;;16.80;99.90;18.40;96440.00;;;;5030774;28;20221;-86
2022/05/23 06:21:10;;;;;;;8.43;4.43;;;16.90;99.90;18.50;96443.00;;;;5029206;28;20202;-86
2022/05/23 06:24:00;;;;;;;4.13;3.80;;;16.80;99.90;18.70;96431.00;;;;5028631;28;20204;-86
2022/05/23 06:26:51;;;;;;;6.73;4.10;;;17.20;99.90;18.90;96423.00;;;;5035492;28;20583;-85
2022/05/23 06:29:40;;;;;;;5.33;4.00;;;17.20;99.90;19.00;96413.00;;;;5030650;28;20217;-86
2022/05/23 06:32:29;;;;;;;6.37;4.23;;;17.20;99.90;19.30;96415.00;;;;5029720;28;20209;-86
2022/05/23 06:35:21;;;;;;;5.73;4.17;;;17.60;99.90;19.70;96414.00;;;;5022964;28;20696;-86
2022/05/23 06:38:10;;;;;;;10.03;4.00;;;17.40;99.90;19.90;96418.00;;;;5027507;28;20225;-85
2022/05/23 06:40:59;;;;;;;7.90;4.47;;;18.10;99.90;20.20;96420.00;;;;5032763;28;20208;-87
2022/05/23 06:43:47;;;;;;;5.70;3.53;;;18.10;99.90;20.30;96424.00;;;;5030814;28;20220;-86
2022/05/23 06:46:37;;;;;;;4.60;3.33;;;19.30;99.90;20.20;96410.00;;;;5025731;28;20197;-86
2022/05/23 06:49:26;;;;;;;6.07;4.23;;;18.00;99.90;20.30;96427.00;;;;5027762;28;20688;-85
2022/05/23 06:52:16;;;;;;;4.73;3.90;;;18.50;99.90;20.40;96426.00;;;;5030394;28;20221;-86
2022/05/23 06:55:07;;;;;;;3.70;3.40;;;18.70;99.90;20.30;96414.00;;;;5034526;28;20224;-86
2022/05/23 06:57:57;;;;;;;6.53;4.43;;;18.60;99.90;19.70;96407.00;;;;5032094;28;20724;-86
2022/05/23 07:00:46;;;;;;;4.30;3.90;;;18.60;99.90;19.90;96408.00;;;;5023188;28;20682;-86
2022/05/23 07:03:37;;;;;;;3.90;3.47;;;18.40;99.90;20.20;96398.00;;;;5031463;28;20699;-86
2022/05/23 07:12:40;;;;;;;4.30;3.43;;;18.80;99.90;19.60;96397.00;;;;5032171;28;20670;-86
2022/05/23 07:15:35;;;;;;;7.07;3.67;;;18.60;99.90;19.90;96395.00;;;;5034720;28;20221;-86
2022/05/23 07:18:25;;;;;;;5.93;3.50;;;18.80;99.90;20.20;96392.00;;;;5022004;28;20230;-86
2022/05/23 07:21:14;;;;;;;6.50;3.30;;;18.70;99.90;20.10;96391.00;;;;5037360;28;20198;-85
2022/05/23 07:24:04;;;;;;;5.33;3.30;;;18.60;99.90;20.10;96389.00;;;;5031379;28;20201;-86
2022/05/23 07:26:55;;;;;;;3.37;3.00;;;18.80;99.90;20.30;96394.00;;;;5031752;28;20197;-86
2022/05/23 07:29:44;;;;;;;4.10;3.03;;;18.80;99.90;20.40;96388.00;;;;5032273;28;20218;-86
2022/05/23 07:32:33;;;;;;;6.83;3.37;;;18.90;99.90;20.40;96380.00;;;;5032640;28;20220;-86
2022/05/23 07:35:22;;;;;;;11.43;4.17;;;19.00;99.90;20.30;96388.00;;;;5035851;28;20221;-86
2022/05/23 07:38:10;;;;;;;10.17;5.00;;;19.20;99.90;19.90;96375.00;;;;5030001;28;20233;-87
2022/05/23 07:41:00;;;;;;;15.03;5.13;;;18.80;99.90;19.60;96374.00;;;;5029817;28;20193;-86
2022/05/23 07:43:50;;;;;;;7.73;4.27;;;18.80;99.90;19.60;96387.00;;;;5032059;28;20675;-85
2022/05/23 07:46:42;;;;;;;7.20;3.73;;;18.80;99.90;19.70;96375.00;;;;5037425;28;20566;-86
2022/05/23 07:49:31;;;;;;;6.87;3.57;;;18.70;99.90;21.00;96380.00;;;;5040422;28;20225;-85
2022/05/23 07:52:20;;;;;;;6.47;3.20;;;19.00;99.90;21.70;96381.00;;;;5030344;28;20204;-85
2022/05/23 08:01:24;;;;;;;4.83;3.17;;;19.80;99.90;22.20;96394.00;;;;5030874;28;20683;-85
2022/05/23 08:04:13;;;;;;;6.23;2.37;;;20.30;99.90;22.60;96392.00;;;;5030875;28;20201;-84
2022/05/23 08:07:02;;;;;;;5.60;3.40;;;20.10;99.90;22.50;96391.00;;;;5023272;28;20201;-85
2022/05/23 08:09:50;;;;;;;4.03;2.33;;;20.50;99.90;21.90;96398.00;;;;5032168;28;20231;-84
2022/05/23 08:12:40;;;;;;;4.50;2.37;;;20.60;99.90;22.20;96391.00;;;;5033533;28;20205;-85
2022/05/23 08:15:31;;;;;;;4.87;2.00;;;20.60;99.90;22.10;96387.00;;;;5033046;28;20225;-85
2022/05/23 08:18:23;;;;;;;2.73;2.53;;;20.40;99.90;22.20;96391.00;;;;5032527;28;20240;-85
2022/05/23 08:21:11;;;;;;;6.57;2.17;;;20.80;99.90;21.70;96386.00;;;;5033987;28;20201;-85
2022/05/23 08:24:00;;;;;;;8.20;2.60;;;20.50;99.90;21.40;96386.00;;;;5031644;28;20252;-84
2022/05/23 08:26:49;;;;;;;2.77;1.83;;;20.30;99.90;21.90;96388.00;;;;5033158;28;20201;-84
2022/05/23 08:29:38;;;;;;;7.00;2.80;;;20.20;99.90;22.20;96395.00;;;;5025737;28;20434;-84
2022/05/23 08:32:27;;;;;;;2.23;2.03;;;20.10;99.90;22.40;96393.00;;;;5037949;28;20209;-84
2022/05/23 08:35:18;;;;;;;4.23;2.23;;;20.40;99.90;22.50;96391.00;;;;5035042;28;20237;-85
2022/05/23 08:38:10;;;;;;;2.93;1.97;;;20.40;99.90;22.70;96382.00;;;;5036647;28;20217;-84
2022/05/23 08:41:13;;;;;;;5.47;2.83;;;20.70;99.90;21.50;96380.00;;;;5034032;28;20205;-85
2022/05/23 08:44:15;;;;;;;3.43;3.00;;;20.90;99.10;21.50;96380.00;;;;5035244;28;20201;-86
2022/05/23 08:47:08;;;;;;;3.80;2.37;;;20.60;98.60;21.60;96370.00;;;;5035461;28;20679;-88
2022/05/23 08:50:16;;;;;;;3.20;1.77;;;21.10;99.00;22.60;96371.00;;;;5030391;28;20253;-84
2022/05/23 08:53:14;;;;;;;2.90;2.47;;;20.50;99.50;21.40;96378.00;;;;5042817;28;20201;-88
2022/05/23 08:56:13;;;;;;;4.93;2.30;;;20.60;98.10;22.50;96376.00;;;;5043925;28;20221;-88
2022/05/23 08:59:06;;;;;;;4.20;2.20;;;20.50;99.60;22.60;96377.00;;;;5040542;28;20233;-86
2022/05/23 09:02:01;;;;;;;3.37;1.67;;;20.80;98.40;22.40;96386.00;;;;5032768;28;20214;-84
2022/05/23 09:04:57;;;;;;;2.93;2.47;;;20.90;98.10;22.40;96384.00;;;;5035240;28;20201;-84
2022/05/23 09:07:50;;;;;;;3.20;2.23;;;20.70;98.30;22.10;96367.00;;;;5032955;28;20209;-83
2022/05/23 09:10:48;;;;;;;6.90;3.07;;;20.80;98.30;22.20;96380.00;;;;5032801;28;20209;-83
2022/05/23 09:13:42;;;;;;;6.87;2.90;;;20.70;97.00;22.20;96377.00;;;;5033750;28;20602;-84
2022/05/23 09:16:39;;;;;;;5.17;2.60;;;20.50;97.70;21.60;96373.00;;;;5026231;28;20213;-84
2022/05/23 09:19:41;;;;;;;5.37;2.47;;;20.50;97.30;22.00;96363.00;;;;5027768;28;20721;-83
2022/05/23 09:22:43;;;;;;;2.70;2.47;;;20.60;98.40;22.40;96366.00;;;;5032670;28;20701;-84
2022/05/23 09:25:32;;;;;;;5.37;2.60;;;20.30;98.40;22.30;96355.00;;;;5033565;28;20241;-83
2022/05/23 09:28:30;;;;;;;2.93;2.63;;;20.60;98.80;22.00;96352.00;;;;5039957;28;20221;-83
2022/05/23 09:31:35;;;;;;;7.43;3.13;;;20.70;98.60;22.00;96358.00;;;;5043289;28;20603;-84
2022/05/23 09:34:36;;;;;;;3.63;2.50;;;20.60;97.60;22.70;96339.00;;;;5044247;28;20203;-83
2022/05/23 09:37:32;;;;;;;4.40;2.97;;;20.60;98.60;22.70;96348.00;;;;5028551;28;20670;-83
2022/05/23 09:40:29;;;;;;;14.80;5.20;;;20.90;98.60;22.60;96345.00;;;;5036899;28;20221;-83
2022/05/23 09:49:45;;;;;;;6.10;3.13;;;20.90;96.30;22.10;96338.00;;;;5028263;28;20236;-84
2022/05/23 09:52:42;;;;;;;3.07;2.50;;;20.80;96.50;22.50;96332.00;;;;5024525;28;20204;-84
2022/05/23 09:55:34;;;;;;;3.73;2.90;;;20.80;97.10;22.70;96330.00;;;;5030604;28;20467;-85
2022/05/23 09:58:34;;;;;;;2.70;2.27;;;21.00;95.70;23.20;96334.00;;;;5031605;28;20582;-85
2022/05/23 10:01:28;;;;;;;5.97;3.03;;;21.10;96.70;22.50;96321.00;;;;5026564;28;20208;-84
2022/05/23 10:04:25;;;;;;;6.73;3.43;;;21.30;95.10;21.70;96320.00;;;;5029591;28;20251;-84
2022/05/23 10:07:23;;;;;;;5.33;3.27;;;21.30;93.70;23.00;96312.00;;;;5024652;28;20225;-84
2022/05/23 10:10:23;;;;;;;3.67;2.83;;;21.20;94.30;23.30;96327.00;;;;5017571;28;20232;-85
2022/05/23 10:13:25;;;;;;;7.83;4.10;;;21.40;94.80;23.00;96340.00;;;;5030442;28;20209;-84
2022/05/23 10:16:26;;;;;;;3.70;2.80;;;21.40;94.70;22.00;96335.00;;;;5024058;28;20251;-83
2022/05/23 10:19:31;;;;;;;6.83;3.40;;;21.30;93.70;22.50;96324.00;;;;5028302;28;20232;-84
2022/05/23 10:22:24;;;;;;;3.97;2.43;;;21.20;94.20;23.20;96334.00;;;;5037676;28;20583;-84
2022/05/23 10:25:14;;;;;;;7.03;3.23;;;21.20;94.90;23.20;96330.00;;;;5033287;28;20208;-84
2022/05/23 10:28:10;;;;;;;5.87;3.77;;;21.20;95.00;23.00;96325.00;;;;5031331;28;20236;-85
2022/05/23 10:31:07;;;;;;;5.20;3.27;;;21.60;94.10;23.30;96328.00;;;;5041596;28;20188;-84
2022/05/23 10:34:03;;;;;;;6.20;4.27;;;21.60;94.50;23.50;96313.00;;;;5035765;28;20223;-84
2022/05/23 10:36:54;;;;;;;5.57;2.83;;;21.60;94.90;23.10;96313.00;;;;5031586;28;20605;-83
2022/05/23 10:43:14;;;;;;;15.30;3.37;;;22.10;94.20;24.00;96292.00;;;;4973970;28;20219;-83
2022/05/23 10:46:04;;;;;;;3.47;2.87;;;21.60;93.90;24.20;96308.00;;;;5029356;28;20732;-85
2022/05/23 10:49:07;;;;;;;6.87;3.33;;;21.90;94.10;23.60;96311.00;;;;5030978;28;20228;-84
2022/05/23 10:52:06;;;;;;;8.70;3.70;;;22.00;92.10;23.20;96300.00;;;;5033363;28;20197;-84
2022/05/23 10:55:05;;;;;;;6.20;2.80;;;22.30;91.20;23.60;96304.00;;;;5022713;28;20668;-85
2022/05/23 10:58:06;;;;;;;6.03;2.90;;;22.10;92.00;24.00;96277.00;;;;5028549;28;20229;-85
2022/05/23 11:01:03;;;;;;;3.03;2.70;;;22.00;92.70;24.40;96280.00;;;;5031719;28;20667;-85
2022/05/23 11:04:08;;;;;;;8.50;3.63;;;22.40;92.80;24.30;96263.00;;;;5026738;28;20239;-85
2022/05/23 11:07:16;;;;;;;7.43;3.77;;;22.50;91.70;24.40;96256.00;;;;5030739;28;20200;-85
2022/05/23 11:10:17;;;;;;;4.83;3.13;;;22.50;90.90;24.80;96269.00;;;;5031047;28;20227;-85
2022/05/23 11:13:40;;;;;;;6.23;2.97;;;22.90;91.20;24.90;96282.00;;;;5027302;28;20680;-85
2022/05/23 11:16:38;;;;;;;5.27;3.17;;;22.80;90.90;24.70;96277.00;;;;5022527;28;20679;-85
2022/05/23 11:19:46;;;;;;;5.33;2.93;;;22.90;90.80;23.00;96261.00;;;;5039431;28;20300;-85
2022/05/23 11:22:39;;;;;;;5.30;2.23;;;22.70;87.90;23.50;96277.00;;;;5036915;28;20558;-85
2022/05/23 11:25:32;;;;;;;2.97;2.47;;;22.40;90.50;24.00;96271.00;;;;5040399;28;20210;-84
2022/05/23 11:34:51;;;;;;;7.40;2.97;;;22.80;91.50;25.60;96219.00;;;;5036131;28;20205;-85
2022/05/23 11:37:48;;;;;;;4.10;2.73;;;23.00;92.00;25.70;96257.00;;;;5036022;28;20703;-84
2022/05/23 11:41:10;;;;;;;4.73;3.17;;;23.30;90.60;23.20;96248.00;;;;5033845;28;20204;-85
2022/05/23 11:43:59;;;;;;;2.67;2.40;;;23.20;86.90;23.30;96221.00;;;;4958594;28;20279;-85
2022/05/23 11:47:20;;;;;;;7.97;2.90;;;22.90;88.90;25.30;96236.00;;;;5029776;28;20225;-84
2022/05/23 11:50:24;;;;;;;3.80;2.50;;;23.00;91.30;26.50;96200.00;;;;5018062;28;20202;-85
2022/05/23 11:53:24;;;;;;;4.33;2.80;;;23.60;91.30;27.50;96182.00;;;;5029903;28;20200;-85
2022/05/23 11:56:37;;;;;;;4.17;2.90;;;24.30;89.60;27.80;96218.00;;;;5033776;28;20661;-85
2022/05/23 12:00:18;;;;;;;3.80;2.40;;;24.70;86.80;27.20;96213.00;;;;5036244;28;20231;-85
2022/05/23 12:03:14;;;;;;;4.97;2.93;;;25.00;81.10;27.40;96223.00;;;;5018258;28;20211;-85
2022/05/23 12:06:18;;;;;;;2.67;2.17;;;25.30;82.80;26.60;96211.00;;;;5035021;28;20257;-85
2022/05/23 12:09:25;;;;;;;4.67;2.70;;;25.30;81.10;27.20;96155.00;;;;5038468;28;20216;-85
2022/05/23 12:12:47;;;;;;;2.87;2.40;;;25.40;81.80;25.70;96204.00;;;;5033677;28;20212;-85
2022/05/23 12:15:52;;;;;;;3.27;2.60;;;25.80;78.10;26.40;96211.00;;;;5034839;28;20212;-85
2022/05/23 12:18:42;;;;;;;5.00;2.73;;;24.90;80.50;25.90;96204.00;;;;5038909;28;20222;-85
2022/05/23 12:21:46;;;;;;;6.03;2.63;;;24.80;80.90;25.60;96192.00;;;;5034046;28;20205;-85
2022/05/23 12:24:36;;;;;;;5.27;3.23;;;24.90;81.90;22.80;96181.00;;;;5041868;28;20209;-85
2022/05/23 12:27:37;;;;;;;9.27;2.27;;;23.80;80.50;25.10;96192.00;;;;5044441;28;20693;-86
2022/05/23 12:30:41;;;;;;;6.20;3.17;;;23.50;84.40;25.40;96193.00;;;;5036578;28;20202;-86
2022/05/23 12:33:30;;;;;;;3.77;2.30;;;23.60;83.90;25.90;96197.00;;;;5035246;28;20212;-85
2022/05/23 12:36:27;;;;;;;5.03;2.50;;;23.70;85.80;26.10;96192.00;;;;5028118;28;20665;-85
2022/05/23 12:39:52;;;;;;;4.63;2.43;;;24.00;86.10;26.30;96201.00;;;;5038494;28;20232;-87
2022/05/23 12:43:02;;;;;;;4.53;2.47;;;24.10;86.10;25.80;96180.00;;;;5030124;28;20663;-86
2022/05/23 12:46:11;;;;;;;3.43;2.70;;;24.10;83.10;26.90;96167.00;;;;5029898;28;20198;-85
2022/05/23 12:49:29;;;;;;;4.17;3.10;;;24.60;82.80;26.80;96153.00;;;;5035017;28;20225;-85
2022/05/23 12:52:43;;;;;;;3.83;2.33;;;25.30;82.20;28.30;96150.00;;;;5031924;28;20210;-86
2022/05/23 12:55:57;;;;;;;4.27;3.17;;;25.40;83.50;27.70;96164.00;;;;5030967;28;20724;-86
2022/05/23 12:59:31;;;;;;;6.90;3.07;;;25.70;78.40;28.40;96168.00;;;;5025382;28;20225;-86
2022/05/23 13:02:31;;;;;;;6.00;3.50;;;26.10;77.40;27.40;96178.00;;;;5038148;28;20197;-85
2022/05/23 13:05:29;;;;;;;3.27;2.73;;;26.10;77.60;27.00;96174.00;;;;5032298;28;20214;-85
2022/05/23 13:08:23;;;;;;;6.57;3.13;;;26.00;78.20;27.80;96163.00;;;;5032143;28;20735;-85
2022/05/23 13:11:22;;;;;;;4.23;3.13;;;25.90;76.40;26.90;96167.00;;;;5026191;28;20211;-85
2022/05/23 13:14:11;;;;;;;5.47;3.10;;;25.90;74.30;24.00;96149.00;;;;5031662;28;20202;-86
2022/05/23 13:17:00;;;;;;;6.33;3.33;;;25.00;75.00;25.40;96152.00;;;;5031610;28;20196;-85
2022/05/23 13:22:56;;;;;;;4.30;2.70;;;24.60;81.30;25.90;96130.00;;;;5031059;28;20211;-86
2022/05/23 13:25:47;;;;;;;6.30;3.13;;;24.80;78.40;26.40;96115.00;;;;5021661;28;20208;-87
2022/05/23 13:28:45;;;;;;;7.40;3.47;;;24.80;79.50;27.70;96115.00;;;;5037592;28;20231;-88
2022/05/23 13:31:34;;;;;;;3.67;2.80;;;25.30;78.30;26.80;96125.00;;;;5031162;28;20206;-86
2022/05/23 13:34:24;;;;;;;6.90;3.23;;;25.50;76.40;27.30;96121.00;;;;5031412;28;20216;-86
2022/05/23 13:37:30;;;;;;;5.03;3.10;;;25.50;77.60;28.00;96125.00;;;;5031265;28;20202;-87
2022/05/23 13:40:26;;;;;;;3.03;2.73;;;25.70;78.00;28.70;96120.00;;;;5033524;28;20266;-88
2022/05/23 13:43:18;;;;;;;4.70;3.63;;;26.00;78.10;28.00;96111.00;;;;5025708;28;20699;-86
2022/05/23 13:46:22;;;;;;;5.30;2.87;;;26.30;73.90;28.20;96113.00;;;;5026345;28;20209;-87
2022/05/23 13:49:21;;;;;;;4.87;2.87;;;26.10;75.20;28.50;96121.00;;;;5031143;28;20225;-87